createdAt,value
2019-02-16T00:00:47.614Z,12.07
2019-02-16T00:03:14.531Z,13.90
2019-02-16T00:05:41.455Z,11.90
2019-02-16T00:08:08.370Z,12.90
2019-02-16T00:10:35.321Z,12.33
2019-02-16T00:13:02.618Z,12.73
2019-02-16T00:15:29.634Z,12.53
2019-02-16T00:17:56.500Z,12.23
2019-02-16T00:20:23.301Z,12.03
2019-02-16T00:22:50.098Z,12.23
2019-02-16T00:25:16.938Z,11.37
2019-02-16T00:27:43.733Z,11.57
2019-02-16T00:30:10.737Z,11.90
2019-02-16T00:32:37.886Z,11.67
2019-02-16T00:35:04.918Z,10.93
2019-02-16T00:37:31.730Z,11.07
2019-02-16T00:39:58.628Z,10.50
2019-02-16T00:42:25.526Z,11.57
2019-02-16T00:44:52.319Z,11.23
2019-02-16T00:47:19.266Z,10.90
2019-02-16T00:49:46.070Z,10.57
2019-02-16T00:52:12.875Z,9.33
2019-02-16T00:54:39.700Z,10.93
2019-02-16T00:57:06.517Z,10.77
2019-02-16T00:59:33.318Z,10.87
2019-02-16T01:02:00.160Z,10.60
2019-02-16T01:04:27.068Z,10.40
2019-02-16T01:06:55.773Z,10.53
2019-02-16T01:09:22.654Z,11.10
2019-02-16T01:11:49.623Z,11.53
2019-02-16T01:14:16.531Z,10.13
2019-02-16T01:16:43.402Z,10.23
2019-02-16T01:19:10.215Z,11.03
2019-02-16T01:21:37.025Z,11.23
2019-02-16T01:24:04.051Z,11.10
2019-02-16T01:26:30.849Z,11.23
2019-02-16T01:28:57.647Z,11.43
2019-02-16T01:31:24.470Z,10.87
2019-02-16T01:33:51.369Z,11.03
2019-02-16T01:36:18.381Z,11.93
2019-02-16T01:38:45.239Z,10.93
2019-02-16T01:41:12.067Z,11.00
2019-02-16T01:43:38.899Z,10.63
2019-02-16T01:46:05.867Z,11.23
2019-02-16T01:48:32.900Z,12.07
2019-02-16T01:50:59.800Z,12.63
2019-02-16T01:53:26.645Z,13.00
2019-02-16T01:55:53.452Z,13.73
2019-02-16T01:58:20.962Z,13.00
2019-02-16T02:00:48.034Z,12.50
2019-02-16T02:03:15.030Z,13.80
2019-02-16T02:05:41.854Z,13.90
2019-02-16T02:08:08.890Z,11.97
2019-02-16T02:10:35.702Z,13.60
2019-02-16T02:13:02.502Z,12.87
2019-02-16T02:15:29.650Z,12.47
2019-02-16T02:17:56.448Z,12.13
2019-02-16T02:20:23.350Z,12.17
2019-02-16T02:22:50.368Z,11.90
2019-02-16T02:25:17.153Z,12.20
2019-02-16T02:27:43.984Z,11.07
2019-02-16T02:30:11.103Z,11.20
2019-02-16T02:32:38.082Z,11.93
2019-02-16T02:35:05.302Z,11.27
2019-02-16T02:37:32.149Z,11.30
2019-02-16T02:39:59.055Z,10.70
2019-02-16T02:42:25.889Z,11.80
2019-02-16T02:44:52.730Z,12.00
2019-02-16T02:47:19.541Z,12.07
2019-02-16T02:49:46.350Z,10.67
2019-02-16T02:52:13.302Z,11.20
2019-02-16T02:54:40.142Z,10.70
2019-02-16T02:57:07.076Z,10.63
2019-02-16T02:59:34.430Z,11.13
2019-02-16T03:02:01.282Z,11.37
2019-02-16T03:04:28.081Z,12.13
2019-02-16T03:06:54.911Z,11.60
2019-02-16T03:09:21.696Z,12.37
2019-02-16T03:11:48.503Z,11.90
2019-02-16T03:14:15.353Z,12.23
2019-02-16T03:16:42.159Z,11.50
2019-02-16T03:19:09.118Z,12.60
2019-02-16T03:21:38.309Z,11.93
2019-02-16T03:24:05.106Z,11.70
2019-02-16T03:26:54.460Z,11.77
2019-02-16T03:29:37.528Z,11.60
2019-02-16T03:32:28.811Z,12.30
2019-02-16T03:35:43.582Z,11.90
2019-02-16T03:38:33.964Z,12.00
2019-02-16T03:41:00.760Z,11.33
2019-02-16T03:43:27.586Z,11.53
2019-02-16T03:45:54.560Z,11.20
2019-02-16T03:48:21.410Z,11.67
2019-02-16T03:50:48.339Z,10.90
2019-02-16T03:53:15.186Z,11.03
2019-02-16T03:55:42.184Z,10.73
2019-02-16T03:58:09.011Z,10.80
2019-02-16T04:00:35.949Z,10.77
2019-02-16T04:03:03.020Z,11.80
2019-02-16T04:05:29.929Z,11.23
2019-02-16T04:07:56.784Z,11.10
2019-02-16T04:10:23.614Z,12.43
2019-02-16T04:12:50.421Z,11.87
2019-02-16T04:15:17.241Z,13.03
2019-02-16T04:17:44.050Z,12.30
2019-02-16T04:20:10.995Z,11.37
2019-02-16T04:22:37.994Z,11.33
2019-02-16T04:25:05.001Z,11.70
2019-02-16T04:27:31.797Z,12.63
2019-02-16T04:29:58.638Z,12.70
2019-02-16T04:32:25.552Z,12.23
2019-02-16T04:34:52.351Z,12.83
2019-02-16T04:37:19.291Z,11.47
2019-02-16T04:39:46.197Z,12.73
2019-02-16T04:42:13.115Z,12.17
2019-02-16T04:44:40.002Z,12.37
2019-02-16T04:47:07.015Z,11.50
2019-02-16T04:49:34.122Z,11.70
2019-02-16T04:52:01.108Z,13.40
2019-02-16T04:54:27.991Z,11.23
2019-02-16T04:56:54.806Z,10.50
2019-02-16T04:59:21.651Z,12.03
2019-02-16T05:01:48.545Z,11.27
2019-02-16T05:04:15.363Z,10.73
2019-02-16T05:06:42.245Z,10.70
2019-02-16T05:09:09.254Z,10.27
2019-02-16T05:11:36.074Z,10.70
2019-02-16T05:14:03.031Z,9.97
2019-02-16T05:16:30.084Z,9.80
2019-02-16T05:18:56.892Z,10.93
2019-02-16T05:21:23.929Z,9.17
2019-02-16T05:23:50.829Z,10.13
2019-02-16T05:26:17.725Z,10.63
2019-02-16T05:28:44.581Z,10.17
2019-02-16T05:31:11.492Z,9.97
2019-02-16T05:33:38.290Z,9.90
2019-02-16T05:36:05.250Z,10.77
2019-02-16T05:38:32.058Z,9.90
2019-02-16T05:40:58.881Z,9.87
2019-02-16T05:43:25.759Z,9.73
2019-02-16T05:45:52.566Z,9.57
2019-02-16T05:48:19.366Z,8.93
2019-02-16T05:50:46.202Z,9.43
2019-02-16T05:53:13.006Z,8.93
2019-02-16T05:55:39.826Z,9.43
2019-02-16T05:58:06.774Z,8.37
2019-02-16T06:00:33.602Z,8.53
2019-02-16T06:03:00.410Z,9.50
2019-02-16T06:05:27.302Z,9.20
2019-02-16T06:07:54.099Z,8.70
2019-02-16T06:10:20.883Z,9.53
2019-02-16T06:12:48.114Z,10.60
2019-02-16T06:15:14.987Z,8.87
2019-02-16T06:17:41.798Z,9.40
2019-02-16T06:20:08.649Z,8.90
2019-02-16T06:22:35.481Z,10.13
2019-02-16T06:25:02.556Z,9.60
2019-02-16T06:27:29.820Z,9.63
2019-02-16T06:29:56.752Z,9.93
2019-02-16T06:32:23.677Z,11.00
2019-02-16T06:34:55.630Z,10.70
2019-02-16T06:37:23.723Z,10.37
2019-02-16T06:39:50.927Z,10.27
2019-02-16T06:42:17.909Z,10.67
2019-02-16T06:44:44.717Z,10.33
2019-02-16T06:47:14.127Z,10.53
2019-02-16T06:49:41.079Z,9.80
2019-02-16T06:52:08.070Z,9.73
2019-02-16T06:54:34.866Z,10.73
2019-02-16T06:57:05.373Z,10.13
2019-02-16T06:59:32.178Z,10.53
2019-02-16T07:01:58.975Z,10.17
2019-02-16T07:04:25.814Z,10.27
2019-02-16T07:06:52.635Z,10.33
2019-02-16T07:09:19.546Z,10.50
2019-02-16T07:11:46.553Z,10.77
2019-02-16T07:14:13.357Z,10.43
2019-02-16T07:16:58.966Z,9.40
2019-02-16T07:19:37.819Z,10.17
2019-02-16T07:22:04.911Z,10.30
2019-02-16T07:24:31.711Z,9.27
2019-02-16T07:26:58.567Z,10.10
2019-02-16T07:29:25.499Z,9.53
2019-02-16T07:31:52.309Z,10.23
2019-02-16T07:34:38.773Z,8.93
2019-02-16T07:37:05.577Z,9.50
2019-02-16T07:39:32.386Z,9.43
2019-02-16T07:41:59.261Z,8.87
2019-02-16T07:44:32.358Z,8.30
2019-02-16T07:47:10.401Z,9.67
2019-02-16T07:49:49.402Z,9.07
2019-02-16T07:52:24.778Z,8.20
2019-02-16T07:54:56.621Z,7.90
2019-02-16T07:57:35.059Z,8.33
2019-02-16T08:00:10.471Z,8.70
2019-02-16T08:02:58.990Z,7.50
2019-02-16T08:05:33.633Z,7.57
2019-02-16T08:08:23.182Z,7.50
2019-02-16T08:11:27.739Z,8.50
2019-02-16T08:14:02.176Z,7.43
2019-02-16T08:16:36.655Z,7.97
2019-02-16T08:19:11.424Z,7.20
2019-02-16T08:21:56.865Z,8.17
2019-02-16T08:24:52.550Z,7.87
2019-02-16T08:27:24.022Z,7.83
2019-02-16T08:30:09.155Z,7.70
2019-02-16T08:33:07.770Z,8.10
2019-02-16T08:35:52.778Z,7.57
2019-02-16T08:38:42.097Z,7.57
2019-02-16T08:41:25.865Z,7.70
2019-02-16T08:44:01.782Z,8.10
2019-02-16T08:46:41.681Z,6.93
2019-02-16T08:49:33.985Z,7.43
2019-02-16T08:52:18.251Z,7.10
2019-02-16T08:54:52.323Z,8.30
2019-02-16T08:57:41.097Z,6.97
2019-02-16T09:00:30.345Z,7.37
2019-02-16T09:03:05.303Z,7.27
2019-02-16T09:05:56.367Z,7.07
2019-02-16T09:08:33.102Z,7.70
2019-02-16T09:11:22.297Z,7.67
2019-02-16T09:13:57.271Z,7.50
2019-02-16T09:16:37.855Z,7.77
2019-02-16T09:19:21.666Z,6.83
2019-02-16T09:21:57.076Z,7.00
2019-02-16T09:24:32.766Z,7.03
2019-02-16T09:27:12.266Z,7.37
2019-02-16T09:29:56.229Z,7.80
2019-02-16T09:32:43.954Z,7.17
2019-02-16T09:35:29.087Z,7.83
2019-02-16T09:38:15.742Z,6.80
2019-02-16T09:41:02.627Z,7.13
2019-02-16T09:44:00.879Z,6.50
2019-02-16T09:46:50.044Z,7.47
2019-02-16T09:49:30.906Z,7.20
2019-02-16T09:52:09.342Z,6.67
2019-02-16T09:54:51.513Z,6.70
2019-02-16T09:57:27.290Z,7.07
2019-02-16T10:00:03.527Z,7.30
2019-02-16T10:02:39.615Z,6.60
2019-02-16T10:05:26.275Z,7.10
2019-02-16T10:08:13.623Z,7.67
2019-02-16T10:10:58.855Z,7.20
2019-02-16T10:13:38.737Z,7.40
2019-02-16T10:16:27.874Z,6.13
2019-02-16T10:19:05.796Z,6.83
2019-02-16T10:21:50.957Z,7.17
2019-02-16T10:24:40.255Z,7.07
2019-02-16T10:27:29.569Z,7.20
2019-02-16T10:30:02.590Z,6.40
2019-02-16T10:32:47.515Z,7.27
2019-02-16T10:35:24.118Z,7.03
2019-02-16T10:37:57.572Z,6.27
2019-02-16T10:40:44.122Z,7.03
2019-02-16T10:43:36.717Z,7.17
2019-02-16T10:46:22.268Z,7.27
2019-02-16T10:49:08.733Z,7.13
2019-02-16T10:51:55.332Z,7.93
2019-02-16T10:54:32.047Z,7.37
2019-02-16T10:57:09.881Z,6.93
2019-02-16T11:00:05.230Z,7.63
2019-02-16T11:02:46.157Z,7.67
2019-02-16T11:05:19.123Z,7.30
2019-02-16T11:07:52.033Z,7.27
2019-02-16T11:10:38.703Z,8.00
2019-02-16T11:13:21.273Z,7.93
2019-02-16T11:15:54.920Z,7.50
2019-02-16T11:18:59.474Z,7.83
2019-02-16T11:21:38.958Z,7.90
2019-02-16T11:24:13.326Z,8.37
2019-02-16T11:26:48.337Z,7.60
2019-02-16T11:29:53.038Z,7.70
2019-02-16T11:32:39.494Z,8.33
2019-02-16T11:35:26.514Z,8.20
2019-02-16T11:38:04.330Z,7.87
2019-02-16T11:40:53.706Z,8.23
2019-02-16T11:43:34.345Z,9.07
2019-02-16T11:46:10.966Z,8.17
2019-02-16T11:48:45.661Z,8.83
2019-02-16T11:51:34.750Z,7.53
2019-02-16T11:54:45.226Z,8.13
2019-02-16T11:57:17.050Z,8.77
2019-02-16T11:59:59.864Z,8.37
2019-02-16T12:02:41.769Z,8.63
2019-02-16T12:05:18.095Z,8.77
2019-02-16T12:08:01.698Z,8.40
2019-02-16T12:10:56.823Z,8.93
2019-02-16T12:13:51.654Z,8.60
2019-02-16T12:16:38.192Z,8.87
2019-02-16T12:19:36.493Z,9.20
2019-02-16T12:22:12.438Z,8.67
2019-02-16T12:25:08.314Z,7.87
2019-02-16T12:28:17.414Z,8.57
2019-02-16T12:31:03.924Z,9.17
2019-02-16T12:33:38.882Z,8.67
2019-02-16T12:36:22.071Z,9.77
2019-02-16T12:39:05.097Z,9.50
2019-02-16T12:41:41.938Z,8.73
2019-02-16T12:44:31.219Z,9.77
2019-02-16T12:47:16.787Z,9.47
2019-02-16T12:49:51.050Z,9.47
2019-02-16T12:52:36.540Z,9.80
2019-02-16T12:55:21.481Z,9.83
2019-02-16T12:58:02.921Z,10.37
2019-02-16T13:01:04.367Z,10.23
2019-02-16T13:03:59.782Z,9.80
2019-02-16T13:06:46.228Z,9.50
2019-02-16T13:09:22.211Z,10.30
2019-02-16T13:11:58.132Z,9.73
2019-02-16T13:14:39.849Z,11.20
2019-02-16T13:17:32.446Z,10.90
2019-02-16T13:20:20.523Z,10.90
2019-02-16T13:23:01.558Z,10.93
2019-02-16T13:25:46.183Z,10.80
2019-02-16T13:28:26.465Z,11.10
2019-02-16T13:31:18.780Z,11.67
2019-02-16T13:34:03.864Z,11.30
2019-02-16T13:36:36.978Z,11.27
2019-02-16T13:39:18.934Z,11.53
2019-02-16T13:42:03.918Z,10.80
2019-02-16T13:44:49.171Z,11.43
2019-02-16T13:47:36.239Z,11.13
2019-02-16T13:50:20.402Z,11.30
2019-02-16T13:53:13.090Z,11.90
2019-02-16T13:55:58.213Z,10.83
2019-02-16T13:58:49.683Z,11.83
2019-02-16T14:01:32.146Z,12.70
2019-02-16T14:04:29.534Z,11.97
2019-02-16T14:07:14.405Z,12.37
2019-02-16T14:10:10.038Z,12.00
2019-02-16T14:12:55.549Z,12.37
2019-02-16T14:15:29.604Z,12.03
2019-02-16T14:17:56.708Z,12.40
2019-02-16T14:20:23.765Z,12.80
2019-02-16T14:22:50.704Z,12.07
2019-02-16T14:25:29.829Z,11.93
2019-02-16T14:27:56.891Z,12.27
2019-02-16T14:30:23.898Z,12.13
2019-02-16T14:32:50.840Z,12.40
2019-02-16T14:35:17.895Z,11.97
2019-02-16T14:37:52.663Z,12.93
2019-02-16T14:40:19.996Z,12.00
2019-02-16T14:42:46.882Z,14.10
2019-02-16T14:45:13.929Z,13.03
2019-02-16T14:47:40.920Z,11.73
2019-02-16T14:50:10.849Z,12.47
2019-02-16T14:52:37.872Z,13.10
2019-02-16T14:55:06.735Z,12.90
2019-02-16T14:57:34.114Z,13.37
2019-02-16T15:00:02.294Z,13.97
2019-02-16T15:02:31.919Z,13.73
2019-02-16T15:04:58.766Z,14.30
2019-02-16T15:07:25.611Z,13.63
2019-02-16T15:09:52.602Z,13.87
2019-02-16T15:12:19.442Z,13.70
2019-02-16T15:14:46.260Z,13.83
2019-02-16T15:17:13.163Z,13.00
2019-02-16T15:19:40.214Z,13.70
2019-02-16T15:22:07.129Z,14.40
2019-02-16T15:24:33.967Z,12.40
2019-02-16T15:27:00.938Z,14.30
2019-02-16T15:29:27.894Z,14.87
2019-02-16T15:31:54.806Z,14.10
2019-02-16T15:34:21.841Z,15.03
2019-02-16T15:36:48.705Z,14.93
2019-02-16T15:39:15.596Z,15.10
2019-02-16T15:41:42.559Z,15.50
2019-02-16T15:44:10.824Z,15.50
2019-02-16T15:46:37.877Z,16.30
2019-02-16T15:49:04.716Z,16.00
2019-02-16T15:51:31.845Z,15.80
2019-02-16T15:53:58.702Z,17.50
2019-02-16T15:56:25.568Z,16.87
2019-02-16T15:58:54.177Z,17.13
2019-02-16T16:01:22.891Z,15.83
2019-02-16T16:03:51.719Z,15.67
2019-02-16T16:06:46.073Z,16.57
2019-02-16T16:09:34.901Z,16.97
2019-02-16T16:12:11.765Z,17.63
2019-02-16T16:14:56.243Z,16.10
2019-02-16T16:17:35.756Z,17.53
2019-02-16T16:20:09.742Z,17.57
2019-02-16T16:22:55.981Z,17.17
2019-02-16T16:25:45.733Z,17.63
2019-02-16T16:28:32.264Z,17.80
2019-02-16T16:31:17.377Z,17.40
2019-02-16T16:34:06.832Z,18.53
2019-02-16T16:36:50.039Z,18.33
2019-02-16T16:39:28.810Z,18.90
2019-02-16T16:42:02.415Z,18.43
2019-02-16T16:44:57.589Z,18.73
2019-02-16T16:47:44.287Z,19.60
2019-02-16T16:50:34.010Z,19.63
2019-02-16T16:53:23.138Z,18.97
2019-02-16T16:55:56.233Z,19.77
2019-02-16T16:58:54.828Z,20.03
2019-02-16T17:01:56.726Z,21.07
2019-02-16T17:04:37.108Z,20.87
2019-02-16T17:07:37.957Z,20.63
2019-02-16T17:10:31.665Z,20.50
2019-02-16T17:13:29.960Z,21.57
2019-02-16T17:16:14.900Z,21.10
2019-02-16T17:18:58.749Z,20.57
2019-02-16T17:21:47.838Z,20.90
2019-02-16T17:24:37.529Z,20.97
2019-02-16T17:27:29.465Z,22.20
2019-02-16T17:30:05.550Z,21.03
2019-02-16T17:32:39.746Z,20.27
2019-02-16T17:35:41.774Z,20.83
2019-02-16T17:38:31.211Z,21.27
2019-02-16T17:41:22.122Z,20.70
2019-02-16T17:44:01.811Z,21.07
2019-02-16T17:46:38.314Z,20.67
2019-02-16T17:49:23.686Z,21.90
2019-02-16T17:52:10.420Z,21.33
2019-02-16T17:54:59.709Z,20.40
2019-02-16T17:57:52.526Z,21.80
2019-02-16T18:00:37.715Z,21.10
2019-02-16T18:03:36.175Z,20.40
2019-02-16T18:06:12.438Z,21.37
2019-02-16T18:09:01.834Z,21.77
2019-02-16T18:11:39.515Z,20.77
2019-02-16T18:14:32.158Z,21.57
2019-02-16T18:17:20.580Z,20.83
2019-02-16T18:19:59.033Z,21.83
2019-02-16T18:22:32.093Z,21.20
2019-02-16T18:25:16.366Z,21.50
2019-02-16T18:27:53.829Z,22.90
2019-02-16T18:30:51.738Z,21.53
2019-02-16T18:33:36.958Z,21.73
2019-02-16T18:36:28.515Z,22.43
2019-02-16T18:39:24.805Z,21.77
2019-02-16T18:42:12.356Z,22.37
2019-02-16T18:45:11.332Z,22.73
2019-02-16T18:48:06.589Z,21.67
2019-02-16T18:50:48.150Z,23.83
2019-02-16T18:53:43.587Z,23.90
2019-02-16T18:56:36.247Z,22.50
2019-02-16T18:59:28.946Z,23.20
2019-02-16T19:02:21.056Z,24.93
2019-02-16T19:05:09.279Z,24.67
2019-02-16T19:07:56.214Z,23.77
2019-02-16T19:10:38.028Z,24.80
2019-02-16T19:13:12.106Z,25.17
2019-02-16T19:16:10.529Z,25.27
2019-02-16T19:19:05.978Z,25.33
2019-02-16T19:21:43.434Z,26.53
2019-02-16T19:24:32.930Z,26.60
2019-02-16T19:27:22.085Z,26.83
2019-02-16T19:30:14.042Z,28.37
2019-02-16T19:33:00.781Z,27.87
2019-02-16T19:35:59.097Z,28.10
2019-02-16T19:39:01.031Z,28.77
2019-02-16T19:41:53.482Z,29.17
2019-02-16T19:44:31.332Z,28.60
2019-02-16T19:47:10.667Z,28.97
2019-02-16T19:49:47.756Z,28.23
2019-02-16T19:52:33.004Z,29.73
2019-02-16T19:55:06.003Z,32.27
2019-02-16T19:57:55.413Z,30.33
2019-02-16T20:00:40.969Z,31.60
2019-02-16T20:03:18.078Z,31.30
2019-02-16T20:06:01.867Z,32.13
2019-02-16T20:08:48.025Z,32.97
2019-02-16T20:11:34.642Z,33.57
2019-02-16T20:14:10.083Z,33.40
2019-02-16T20:17:02.609Z,33.77
2019-02-16T20:19:49.070Z,33.67
2019-02-16T20:22:26.750Z,35.27
2019-02-16T20:25:03.330Z,34.40
2019-02-16T20:27:56.159Z,34.47
2019-02-16T20:30:33.368Z,34.97
2019-02-16T20:33:22.824Z,35.53
2019-02-16T20:36:18.577Z,36.50
2019-02-16T20:39:04.233Z,36.33
2019-02-16T20:41:46.420Z,34.90
2019-02-16T20:44:33.087Z,36.63
2019-02-16T20:47:09.519Z,35.23
2019-02-16T20:49:54.655Z,37.17
2019-02-16T20:52:39.832Z,36.00
2019-02-16T20:55:12.590Z,38.57
2019-02-16T20:57:48.349Z,37.77
2019-02-16T21:00:43.768Z,39.53
2019-02-16T21:03:30.412Z,39.53
2019-02-16T21:06:17.039Z,38.53
2019-02-16T21:09:09.256Z,41.10
2019-02-16T21:12:01.682Z,40.03
2019-02-16T21:14:53.717Z,40.63
2019-02-16T21:17:48.908Z,41.13
2019-02-16T21:20:28.154Z,41.93
2019-02-16T21:23:07.250Z,43.50
2019-02-16T21:25:44.496Z,41.07
2019-02-16T21:28:41.585Z,42.43
2019-02-16T21:31:20.970Z,43.37
2019-02-16T21:33:59.617Z,42.00
2019-02-16T21:36:34.906Z,41.47
2019-02-16T21:39:24.024Z,41.90
2019-02-16T21:41:56.409Z,43.13
2019-02-16T21:44:44.135Z,42.40
2019-02-16T21:47:23.931Z,43.93
2019-02-16T21:50:09.185Z,45.17
2019-02-16T21:52:55.652Z,43.13
2019-02-16T21:55:42.939Z,45.70
2019-02-16T21:58:44.590Z,46.53
2019-02-16T22:01:17.753Z,43.97
2019-02-16T22:04:06.476Z,42.87
2019-02-16T22:06:45.675Z,44.37
2019-02-16T22:09:37.721Z,43.97
2019-02-16T22:12:36.454Z,46.27
2019-02-16T22:15:04.220Z,47.03
2019-02-16T22:17:31.040Z,48.80
2019-02-16T22:19:58.136Z,47.10
2019-02-16T22:22:24.955Z,48.20
2019-02-16T22:24:51.913Z,48.67
2019-02-16T22:27:18.797Z,47.50
2019-02-16T22:29:45.613Z,49.13
2019-02-16T22:32:12.442Z,48.40
2019-02-16T22:34:39.419Z,48.93
2019-02-16T22:37:06.871Z,48.03
2019-02-16T22:39:33.734Z,47.80
2019-02-16T22:42:00.720Z,48.27
2019-02-16T22:44:27.734Z,46.87
2019-02-16T22:46:54.539Z,49.50
2019-02-16T22:49:21.487Z,50.73
2019-02-16T22:51:48.426Z,49.87
2019-02-16T22:54:15.342Z,48.27
2019-02-16T22:56:42.444Z,47.60
2019-02-16T22:59:09.374Z,49.23
2019-02-16T23:01:36.577Z,49.83
2019-02-16T23:04:03.744Z,49.73
2019-02-16T23:06:30.555Z,51.53
2019-02-16T23:08:57.410Z,51.57
2019-02-16T23:11:24.379Z,49.83
2019-02-16T23:13:51.291Z,50.10
2019-02-16T23:16:18.330Z,48.80
2019-02-16T23:18:45.527Z,50.83
2019-02-16T23:21:12.573Z,50.07
2019-02-16T23:23:39.370Z,51.23
2019-02-16T23:26:06.519Z,50.40
2019-02-16T23:28:38.911Z,50.80
2019-02-16T23:31:02.491Z,49.37
2019-02-16T23:33:29.355Z,51.33
2019-02-16T23:35:56.210Z,49.83
2019-02-16T23:38:23.021Z,50.67
2019-02-16T23:40:49.980Z,50.47
2019-02-16T23:43:16.902Z,52.23
2019-02-16T23:45:43.855Z,51.57
2019-02-16T23:48:10.714Z,50.10
2019-02-16T23:50:37.663Z,49.97
2019-02-16T23:53:04.718Z,50.97
2019-02-16T23:55:31.685Z,50.73
2019-02-16T23:57:58.485Z,51.93
